Time;durP1;ratioP1;P1;durP2;ratioP2;P2;SDS_P1;SDS_P2;PMS_P1;PMS_P2;Temp;Humidity;BMP_temperature;BMP_pressure;BME280_temperature;BME280_humidity;BME280_pressure;Samples;Min_cycle;Max_cycle;Signal;HPM_P1;HPM_P2
2023/06/11 00:00:25;;;;;;;4.57;4.10;;;20.60;99.90;;;;;;5055364;28;20052;-42
2023/06/11 00:02:54;;;;;;;5.70;3.90;;;20.70;99.90;;;;;;5056540;28;20063;-40
2023/06/11 00:05:21;;;;;;;5.90;4.22;;;20.70;99.90;;;;;;5054715;28;20483;-41
2023/06/11 00:07:48;;;;;;;4.30;3.90;;;20.60;99.90;;;;;;5054927;28;20017;-41
2023/06/11 00:10:14;;;;;;;4.55;3.83;;;20.60;99.90;;;;;;5054948;28;20171;-40
2023/06/11 00:12:40;;;;;;;4.30;3.90;;;20.60;99.90;;;;;;5055804;28;20103;-40
2023/06/11 00:15:06;;;;;;;4.75;4.03;;;20.60;99.90;;;;;;5055060;28;20053;-40
2023/06/11 00:17:33;;;;;;;4.63;3.75;;;20.60;99.90;;;;;;5054644;28;20036;-40
2023/06/11 00:20:01;;;;;;;7.13;4.00;;;20.60;99.90;;;;;;5053738;28;20029;-40
2023/06/11 00:22:27;;;;;;;4.50;3.72;;;20.60;99.90;;;;;;5053828;28;20024;-40
2023/06/11 00:24:53;;;;;;;4.63;3.88;;;20.60;99.90;;;;;;5055141;28;20028;-40
2023/06/11 00:27:19;;;;;;;7.05;4.03;;;20.60;99.90;;;;;;5054150;28;20610;-40
2023/06/11 00:29:44;;;;;;;4.32;3.92;;;20.60;99.90;;;;;;5053685;28;20025;-40
2023/06/11 00:32:10;;;;;;;4.28;3.80;;;20.60;99.90;;;;;;5054196;28;20021;-39
2023/06/11 00:34:35;;;;;;;4.93;4.13;;;20.60;99.90;;;;;;5055274;28;20017;-39
2023/06/11 00:37:02;;;;;;;4.63;4.00;;;20.60;99.90;;;;;;5054858;28;20021;-41
2023/06/11 00:39:27;;;;;;;4.68;4.18;;;20.60;99.90;;;;;;5052727;28;20025;-40
2023/06/11 00:41:53;;;;;;;4.43;4.03;;;20.60;99.90;;;;;;5054256;28;20032;-40
2023/06/11 00:44:21;;;;;;;4.32;3.88;;;20.60;99.90;;;;;;5054686;28;20029;-40
2023/06/11 00:46:48;;;;;;;4.60;4.00;;;20.60;99.90;;;;;;5054413;28;20051;-40
2023/06/11 00:49:15;;;;;;;5.57;4.20;;;20.50;99.90;;;;;;5053822;28;20032;-40
2023/06/11 00:51:42;;;;;;;4.72;3.85;;;20.50;99.90;;;;;;5053314;28;20060;-40
2023/06/11 00:54:16;;;;;;;4.07;3.67;;;20.50;99.90;;;;;;5053580;28;20021;-39
2023/06/11 00:56:45;;;;;;;4.20;3.80;;;20.50;99.90;;;;;;5054333;28;20380;-41
2023/06/11 00:59:13;;;;;;;4.45;4.03;;;20.50;99.90;;;;;;5053481;28;20118;-40
2023/06/11 01:01:43;;;;;;;5.03;4.13;;;20.50;99.90;;;;;;5054220;28;20462;-43
2023/06/11 01:04:23;;;;;;;5.95;3.78;;;20.50;99.90;;;;;;5053800;28;20024;-40
2023/06/11 01:06:52;;;;;;;6.93;3.72;;;20.50;99.90;;;;;;5053320;28;20032;-40
2023/06/11 01:09:20;;;;;;;4.32;3.88;;;20.50;99.90;;;;;;5052915;28;20021;-40
2023/06/11 01:11:48;;;;;;;4.47;4.07;;;20.50;99.90;;;;;;5053258;28;20107;-40
2023/06/11 01:14:16;;;;;;;4.05;3.65;;;20.50;99.90;;;;;;5053453;28;20036;-39
2023/06/11 01:16:54;;;;;;;4.22;3.83;;;20.50;99.90;;;;;;5053590;28;20060;-40
2023/06/11 01:19:37;;;;;;;4.80;3.97;;;20.50;99.90;;;;;;5053430;28;20021;-40
2023/06/11 01:22:18;;;;;;;4.32;3.92;;;20.40;99.90;;;;;;5053552;28;20035;-40
2023/06/11 01:25:08;;;;;;;4.60;3.92;;;20.40;99.90;;;;;;5054555;28;20107;-40
2023/06/11 01:28:02;;;;;;;4.43;3.90;;;20.40;99.90;;;;;;5052837;28;20029;-41
2023/06/11 01:30:30;;;;;;;4.32;3.83;;;20.40;99.90;;;;;;5053093;28;20021;-40
2023/06/11 01:32:57;;;;;;;5.53;4.30;;;20.40;99.90;;;;;;5054047;28;20078;-40
2023/06/11 01:35:23;;;;;;;5.13;3.90;;;20.40;99.90;;;;;;5053062;28;20044;-40
2023/06/11 01:37:55;;;;;;;8.27;4.20;;;20.40;99.90;;;;;;5053585;28;20056;-40
2023/06/11 01:40:30;;;;;;;4.13;3.72;;;20.40;99.90;;;;;;5052294;28;20086;-40
2023/06/11 01:42:56;;;;;;;4.22;3.83;;;20.30;99.90;;;;;;5053261;28;20579;-40
2023/06/11 01:45:23;;;;;;;6.20;4.05;;;20.30;99.90;;;;;;5053253;28;20112;-40
2023/06/11 01:47:49;;;;;;;4.45;3.70;;;20.40;99.90;;;;;;5052260;28;20021;-41
2023/06/11 01:50:16;;;;;;;4.30;3.45;;;20.30;99.90;;;;;;5052756;28;20021;-40
2023/06/11 01:52:42;;;;;;;4.00;3.58;;;20.30;99.90;;;;;;5053098;28;20021;-40
2023/06/11 01:55:08;;;;;;;5.95;3.70;;;20.30;99.90;;;;;;5052656;28;20511;-40
2023/06/11 01:57:35;;;;;;;4.72;4.10;;;20.30;99.90;;;;;;5052165;28;20481;-40
2023/06/11 02:00:03;;;;;;;4.47;3.95;;;20.30;99.90;;;;;;5052494;28;20052;-40
2023/06/11 02:02:31;;;;;;;5.88;3.65;;;20.30;99.90;;;;;;5052290;28;20013;-39
2023/06/11 02:04:57;;;;;;;4.40;3.97;;;20.40;99.90;;;;;;5052873;28;20437;-40
2023/06/11 02:07:23;;;;;;;4.72;3.90;;;20.30;99.90;;;;;;5052346;28;20479;-42
2023/06/11 02:09:49;;;;;;;4.10;3.60;;;20.30;99.90;;;;;;5052283;28;20067;-40
2023/06/11 02:12:14;;;;;;;5.20;4.07;;;20.30;99.90;;;;;;5052129;28;20021;-41
2023/06/11 02:14:40;;;;;;;4.93;4.10;;;20.30;99.90;;;;;;5050657;28;20494;-43
2023/06/11 02:17:06;;;;;;;8.43;3.83;;;20.30;99.90;;;;;;5052550;28;20021;-40
2023/06/11 02:19:31;;;;;;;5.13;3.90;;;20.30;99.90;;;;;;5051862;28;20021;-40
2023/06/11 02:21:57;;;;;;;5.03;4.07;;;20.30;99.90;;;;;;5051672;28;20082;-40
2023/06/11 02:24:23;;;;;;;4.35;3.78;;;20.30;99.90;;;;;;5051674;28;20460;-39
2023/06/11 02:26:48;;;;;;;4.57;3.78;;;20.20;99.90;;;;;;5051543;28;20032;-40
2023/06/11 02:29:14;;;;;;;5.95;4.00;;;20.30;99.90;;;;;;5051954;28;20017;-40
2023/06/11 02:31:39;;;;;;;5.65;4.15;;;20.20;99.90;;;;;;5051811;28;20020;-40
2023/06/11 02:34:05;;;;;;;4.18;3.78;;;20.20;99.90;;;;;;5051758;28;20033;-40
2023/06/11 02:36:30;;;;;;;4.53;3.83;;;20.20;99.90;;;;;;5051559;28;20480;-40
2023/06/11 02:38:56;;;;;;;4.88;3.95;;;20.20;99.90;;;;;;5051445;28;20040;-40
2023/06/11 02:41:22;;;;;;;4.82;3.95;;;20.20;99.90;;;;;;5051612;28;20056;-40
2023/06/11 02:43:47;;;;;;;4.45;4.05;;;20.20;99.90;;;;;;5051464;28;20021;-40
2023/06/11 02:46:13;;;;;;;5.70;3.90;;;20.20;99.90;;;;;;5050926;28;20028;-41
2023/06/11 02:48:38;;;;;;;4.68;3.88;;;20.20;99.90;;;;;;5051742;28;20035;-40
2023/06/11 02:51:04;;;;;;;5.50;4.15;;;20.20;99.90;;;;;;5051612;28;20017;-40
2023/06/11 02:53:30;;;;;;;4.20;3.55;;;20.20;99.90;;;;;;5052274;28;20047;-40
2023/06/11 02:55:55;;;;;;;4.03;3.63;;;20.20;99.90;;;;;;5051149;28;20104;-39
2023/06/11 02:58:21;;;;;;;3.92;3.53;;;20.20;99.90;;;;;;5051647;28;20383;-39
2023/06/11 03:00:47;;;;;;;4.65;4.25;;;20.10;99.90;;;;;;5052111;28;20465;-40
2023/06/11 03:03:12;;;;;;;5.07;4.13;;;20.20;99.90;;;;;;5051474;28;20033;-41
2023/06/11 03:05:38;;;;;;;4.05;3.65;;;20.10;99.90;;;;;;5051264;28;20116;-40
2023/06/11 03:08:04;;;;;;;5.60;4.13;;;20.10;99.90;;;;;;5051343;28;20025;-41
2023/06/11 03:10:29;;;;;;;4.85;3.83;;;20.10;99.90;;;;;;5051634;28;20048;-40
2023/06/11 03:12:55;;;;;;;4.28;3.60;;;20.10;99.90;;;;;;5052013;28;20502;-42
2023/06/11 03:15:21;;;;;;;4.65;4.18;;;20.10;99.90;;;;;;5050937;28;20515;-40
2023/06/11 03:17:46;;;;;;;4.63;4.13;;;20.10;99.90;;;;;;5051500;28;20032;-43
2023/06/11 03:20:12;;;;;;;5.78;3.97;;;20.10;99.90;;;;;;5051198;28;20029;-39
2023/06/11 03:22:38;;;;;;;4.75;4.20;;;20.10;99.90;;;;;;5051140;28;20412;-40
2023/06/11 03:25:04;;;;;;;4.70;4.00;;;20.10;99.90;;;;;;5050862;28;20028;-40
2023/06/11 03:27:30;;;;;;;4.68;3.60;;;20.10;99.90;;;;;;5051779;28;20025;-41
2023/06/11 03:29:56;;;;;;;4.10;3.70;;;20.10;99.90;;;;;;5050935;28;20025;-40
2023/06/11 03:32:21;;;;;;;4.38;3.78;;;20.10;99.90;;;;;;5050956;28;20026;-40
2023/06/11 03:34:47;;;;;;;4.78;3.65;;;20.10;99.90;;;;;;5051548;28;20074;-40
2023/06/11 03:37:12;;;;;;;6.18;4.20;;;20.10;99.90;;;;;;5050605;28;20017;-40
2023/06/11 03:39:38;;;;;;;4.45;3.67;;;20.10;99.90;;;;;;5050859;28;20079;-41
2023/06/11 03:42:04;;;;;;;5.57;4.10;;;20.10;99.90;;;;;;5049926;28;20025;-40
2023/06/11 03:44:30;;;;;;;4.35;3.90;;;20.10;99.90;;;;;;5052020;28;20471;-40
2023/06/11 03:46:55;;;;;;;5.28;3.85;;;20.10;99.90;;;;;;5050891;28;20033;-40
2023/06/11 03:49:21;;;;;;;4.13;3.72;;;20.10;99.90;;;;;;5050688;28;20021;-40
2023/06/11 03:51:46;;;;;;;4.75;3.55;;;20.10;99.90;;;;;;5050967;28;20468;-41
2023/06/11 03:54:12;;;;;;;4.72;3.70;;;20.10;99.90;;;;;;5050591;28;20392;-40
2023/06/11 03:56:38;;;;;;;3.80;3.40;;;20.00;99.90;;;;;;5053558;28;20112;-41
2023/06/11 03:59:03;;;;;;;4.90;3.90;;;20.00;99.90;;;;;;5054382;28;20041;-40
2023/06/11 04:01:30;;;;;;;4.47;3.63;;;20.00;99.90;;;;;;5054026;28;20499;-40
2023/06/11 04:03:56;;;;;;;6.13;3.67;;;20.00;99.90;;;;;;5054321;28;20424;-39
2023/06/11 04:06:22;;;;;;;7.50;3.97;;;20.00;99.90;;;;;;5053958;28;20114;-39
2023/06/11 04:08:48;;;;;;;9.02;3.78;;;20.00;99.90;;;;;;5055158;28;20052;-40
2023/06/11 04:11:13;;;;;;;4.05;3.63;;;20.00;99.90;;;;;;5054008;28;20498;-40
2023/06/11 04:13:39;;;;;;;4.57;4.10;;;20.00;99.90;;;;;;5054166;28;20036;-40
2023/06/11 04:16:05;;;;;;;4.30;3.47;;;20.00;99.90;;;;;;5054735;28;20032;-43
2023/06/11 04:18:31;;;;;;;4.25;3.85;;;20.00;99.90;;;;;;5054285;28;20100;-41
2023/06/11 04:20:57;;;;;;;5.72;3.97;;;20.00;99.90;;;;;;5053940;28;20112;-40
2023/06/11 04:23:22;;;;;;;6.25;4.10;;;20.00;99.90;;;;;;5053881;28;20051;-39
2023/06/11 04:25:49;;;;;;;6.05;3.90;;;20.00;99.90;;;;;;5053837;28;20098;-40
2023/06/11 04:28:15;;;;;;;4.95;4.30;;;20.00;99.90;;;;;;5054373;28;20024;-40
2023/06/11 04:30:41;;;;;;;7.25;4.35;;;20.00;99.90;;;;;;5054271;28;20021;-39
2023/06/11 04:33:07;;;;;;;4.32;3.92;;;20.00;99.90;;;;;;5054257;28;20074;-40
2023/06/11 04:35:34;;;;;;;4.30;3.90;;;20.00;99.90;;;;;;5053557;28;20025;-39
2023/06/11 04:38:02;;;;;;;4.20;3.60;;;20.00;99.90;;;;;;5054460;28;20107;-41
2023/06/11 04:40:29;;;;;;;6.53;4.13;;;20.00;99.90;;;;;;5053606;28;20025;-42
2023/06/11 04:42:54;;;;;;;5.15;3.85;;;20.00;99.90;;;;;;5053586;28;20056;-39
2023/06/11 04:45:20;;;;;;;7.07;3.95;;;20.00;99.90;;;;;;5053755;28;20057;-40
2023/06/11 04:47:46;;;;;;;4.80;3.67;;;20.00;99.90;;;;;;5054293;28;20032;-40
2023/06/11 04:50:12;;;;;;;4.53;4.13;;;20.00;99.90;;;;;;5053535;28;20025;-41
2023/06/11 04:52:38;;;;;;;4.40;3.95;;;20.00;99.90;;;;;;5054112;28;20064;-42
2023/06/11 04:55:06;;;;;;;4.72;4.00;;;20.00;99.90;;;;;;5054120;28;20447;-41
2023/06/11 04:57:34;;;;;;;4.32;3.75;;;20.00;99.90;;;;;;5053765;28;20082;-40
2023/06/11 05:00:01;;;;;;;5.75;4.20;;;20.00;99.90;;;;;;5053616;28;20032;-40
2023/06/11 05:02:27;;;;;;;5.10;4.60;;;20.00;99.90;;;;;;5053871;28;20021;-40
2023/06/11 05:04:57;;;;;;;5.68;4.28;;;20.00;99.90;;;;;;5053558;28;20435;-39
2023/06/11 05:07:23;;;;;;;5.93;4.10;;;20.00;99.90;;;;;;5053285;28;20036;-40
2023/06/11 05:09:48;;;;;;;5.80;4.60;;;20.00;99.90;;;;;;5053686;28;20021;-41
2023/06/11 05:12:14;;;;;;;4.65;4.25;;;20.00;99.90;;;;;;5053261;28;20025;-40
2023/06/11 05:14:40;;;;;;;7.47;4.38;;;20.10;99.90;;;;;;5053831;28;20021;-40
2023/06/11 05:17:05;;;;;;;7.20;3.90;;;20.00;99.90;;;;;;5054043;28;20460;-40
2023/06/11 05:19:31;;;;;;;4.32;3.92;;;20.10;99.90;;;;;;5052897;28;20551;-40
2023/06/11 05:21:57;;;;;;;6.50;4.53;;;20.10;99.90;;;;;;5053375;28;20033;-40
2023/06/11 05:24:28;;;;;;;6.15;4.15;;;20.10;99.90;;;;;;5051735;28;20095;-40
2023/06/11 05:26:55;;;;;;;5.75;4.30;;;20.10;99.90;;;;;;5052753;28;20043;-39
2023/06/11 05:29:22;;;;;;;5.60;4.00;;;20.10;99.90;;;;;;5054207;28;20025;-39
2023/06/11 05:31:48;;;;;;;5.70;4.35;;;20.10;99.90;;;;;;5051871;28;20025;-39
2023/06/11 05:34:14;;;;;;;4.95;4.38;;;20.10;99.90;;;;;;5052983;28;20037;-40
2023/06/11 05:36:42;;;;;;;4.78;4.10;;;20.10;99.90;;;;;;5053497;28;20071;-39
2023/06/11 05:39:07;;;;;;;4.10;3.70;;;20.10;99.90;;;;;;5051543;28;20036;-41
2023/06/11 05:41:33;;;;;;;5.93;4.25;;;20.10;99.90;;;;;;5052418;28;20025;-40
2023/06/11 05:43:59;;;;;;;4.70;4.20;;;20.10;99.90;;;;;;5052520;28;20025;-41
2023/06/11 05:46:25;;;;;;;6.15;3.88;;;20.10;99.90;;;;;;5052277;28;20391;-39
2023/06/11 05:48:51;;;;;;;4.38;3.97;;;20.10;99.90;;;;;;5053577;28;20056;-40
2023/06/11 05:51:16;;;;;;;5.05;3.95;;;20.10;99.90;;;;;;5051466;28;20056;-40
2023/06/11 05:53:42;;;;;;;6.30;4.30;;;20.10;99.90;;;;;;5052651;28;20037;-40
2023/06/11 05:56:08;;;;;;;5.57;4.30;;;20.10;99.90;;;;;;5052339;28;20029;-40
2023/06/11 05:58:34;;;;;;;4.80;4.30;;;20.10;99.90;;;;;;5052318;28;20495;-42
2023/06/11 06:01:04;;;;;;;4.78;4.35;;;20.10;99.90;;;;;;5051725;28;20025;-40
2023/06/11 06:03:31;;;;;;;4.47;4.05;;;20.20;99.90;;;;;;5053006;28;20049;-41
2023/06/11 06:05:59;;;;;;;5.10;4.15;;;20.20;99.90;;;;;;5052362;28;20029;-41
2023/06/11 06:08:26;;;;;;;5.03;3.90;;;20.20;99.90;;;;;;5052251;28;20410;-39
2023/06/11 06:10:52;;;;;;;5.70;3.95;;;20.20;99.90;;;;;;5052336;28;20025;-40
2023/06/11 06:13:18;;;;;;;5.38;4.05;;;20.20;99.90;;;;;;5052633;28;20116;-39
2023/06/11 06:15:44;;;;;;;4.78;4.10;;;20.20;99.90;;;;;;5051667;28;20029;-39
2023/06/11 06:18:10;;;;;;;4.22;3.83;;;20.20;99.90;;;;;;5051880;28;20032;-40
2023/06/11 06:20:35;;;;;;;4.20;3.80;;;20.20;99.90;;;;;;5051606;28;20033;-41
2023/06/11 06:23:01;;;;;;;5.47;4.18;;;20.20;99.90;;;;;;5051745;28;20108;-41
2023/06/11 06:25:27;;;;;;;5.47;3.90;;;20.20;99.90;;;;;;5052411;28;20028;-40
2023/06/11 06:27:53;;;;;;;4.82;4.25;;;20.20;99.90;;;;;;5052383;28;20029;-40
2023/06/11 06:30:18;;;;;;;5.55;4.22;;;20.20;99.90;;;;;;5051260;28;20033;-42
2023/06/11 06:32:44;;;;;;;4.95;4.45;;;20.20;99.90;;;;;;5051546;28;20072;-40
2023/06/11 06:35:12;;;;;;;4.72;4.32;;;20.20;99.90;;;;;;5051748;28;20021;-41
2023/06/11 06:37:37;;;;;;;5.13;4.15;;;20.20;99.90;;;;;;5052270;28;20029;-40
2023/06/11 06:40:03;;;;;;;5.00;3.97;;;20.20;99.90;;;;;;5051883;28;20024;-40
2023/06/11 06:42:29;;;;;;;5.63;4.10;;;20.20;99.90;;;;;;5051475;28;20021;-40
2023/06/11 06:44:54;;;;;;;4.65;4.20;;;20.20;99.90;;;;;;5052225;28;20032;-41
2023/06/11 06:47:20;;;;;;;4.30;3.92;;;20.20;99.90;;;;;;5051571;28;20036;-40
2023/06/11 06:49:46;;;;;;;4.80;4.40;;;20.20;99.90;;;;;;5051875;28;20032;-40
2023/06/11 06:52:11;;;;;;;4.80;4.00;;;20.20;99.90;;;;;;5052355;28;20032;-40
2023/06/11 06:54:38;;;;;;;4.45;4.05;;;20.20;99.90;;;;;;5051259;28;20155;-40
2023/06/11 06:57:05;;;;;;;7.55;3.88;;;20.20;99.90;;;;;;5051975;28;20083;-40
2023/06/11 06:59:30;;;;;;;4.75;4.20;;;20.30;99.90;;;;;;5051391;28;20079;-40
2023/06/11 07:01:56;;;;;;;5.05;4.45;;;20.30;99.90;;;;;;5051757;28;20025;-40
2023/06/11 07:04:22;;;;;;;4.88;4.30;;;20.20;99.90;;;;;;5051946;28;20021;-41
2023/06/11 07:06:47;;;;;;;4.57;3.97;;;20.30;99.90;;;;;;5051454;28;20029;-40
2023/06/11 07:09:13;;;;;;;4.72;4.25;;;20.30;99.90;;;;;;5051165;28;20061;-40
2023/06/11 07:11:38;;;;;;;5.60;4.00;;;20.30;99.90;;;;;;5051386;28;20021;-42
2023/06/11 07:14:04;;;;;;;4.15;3.75;;;20.30;99.90;;;;;;5051796;28;20070;-40
2023/06/11 07:16:30;;;;;;;5.13;4.63;;;20.30;99.90;;;;;;5051304;28;20113;-40
2023/06/11 07:18:56;;;;;;;6.38;4.32;;;20.30;99.90;;;;;;5051767;28;20025;-39
2023/06/11 07:21:23;;;;;;;4.75;4.22;;;20.30;99.90;;;;;;5051313;28;20040;-39
2023/06/11 07:23:49;;;;;;;6.82;4.05;;;20.30;99.90;;;;;;5050206;28;20111;-41
2023/06/11 07:26:15;;;;;;;7.85;4.25;;;20.30;99.90;;;;;;5051454;28;20022;-40
2023/06/11 07:28:41;;;;;;;4.57;4.10;;;20.30;99.90;;;;;;5051655;28;20025;-39
2023/06/11 07:31:07;;;;;;;5.50;4.28;;;20.30;99.90;;;;;;5052550;28;20108;-39
2023/06/11 07:33:33;;;;;;;6.60;4.38;;;20.30;99.90;;;;;;5055330;28;20040;-40
2023/06/11 07:35:59;;;;;;;4.70;4.20;;;20.30;99.90;;;;;;5055643;28;20021;-40
2023/06/11 07:38:25;;;;;;;4.93;4.25;;;20.30;99.90;;;;;;5054753;28;20021;-40
2023/06/11 07:40:51;;;;;;;5.25;4.38;;;20.30;99.90;;;;;;5054982;28;20549;-41
2023/06/11 07:43:16;;;;;;;4.75;4.05;;;20.30;99.90;;;;;;5055113;28;20095;-40
2023/06/11 07:45:43;;;;;;;5.20;4.10;;;20.30;99.90;;;;;;5055741;28;20506;-40
2023/06/11 07:48:09;;;;;;;4.82;4.40;;;20.40;99.90;;;;;;5055013;28;20380;-40
2023/06/11 07:50:37;;;;;;;8.05;4.20;;;20.30;99.90;;;;;;5054819;28;20056;-40
2023/06/11 07:53:03;;;;;;;4.43;4.03;;;20.40;99.90;;;;;;5055565;28;20380;-40
2023/06/11 07:55:29;;;;;;;5.13;4.60;;;20.40;99.90;;;;;;5054369;28;20021;-40
2023/06/11 07:57:55;;;;;;;4.68;4.00;;;20.40;99.90;;;;;;5054412;28;20021;-41
2023/06/11 08:00:21;;;;;;;4.60;4.20;;;20.40;99.90;;;;;;5054624;28;20025;-40
2023/06/11 08:02:46;;;;;;;5.25;4.35;;;20.40;99.90;;;;;;5055310;28;20047;-40
2023/06/11 08:05:17;;;;;;;4.15;3.65;;;20.40;99.90;;;;;;5054426;28;20025;-40
2023/06/11 08:07:44;;;;;;;4.63;4.15;;;20.40;99.90;;;;;;5054368;28;20021;-41
2023/06/11 08:10:10;;;;;;;4.90;4.30;;;20.40;99.90;;;;;;5054484;28;20051;-39
2023/06/11 08:12:36;;;;;;;6.55;4.47;;;20.40;99.90;;;;;;5054362;28;20021;-40
2023/06/11 08:15:02;;;;;;;4.20;3.78;;;20.40;99.90;;;;;;5054062;28;20387;-40
2023/06/11 08:17:28;;;;;;;4.93;4.00;;;20.40;99.90;;;;;;5054479;28;20726;-40
2023/06/11 08:19:53;;;;;;;4.60;4.18;;;20.40;99.90;;;;;;5052641;28;20129;-40
2023/06/11 08:22:19;;;;;;;5.15;4.28;;;20.40;99.90;;;;;;5053895;28;20115;-40
2023/06/11 08:24:45;;;;;;;4.20;3.80;;;20.40;99.90;;;;;;5053837;28;20040;-40
2023/06/11 08:27:12;;;;;;;5.38;4.50;;;20.40;99.90;;;;;;5054068;28;20476;-39
2023/06/11 08:29:37;;;;;;;4.28;3.85;;;20.50;99.90;;;;;;5054345;28;20021;-39
2023/06/11 08:32:03;;;;;;;4.50;4.03;;;20.40;99.90;;;;;;5053747;28;20032;-41
2023/06/11 08:34:30;;;;;;;6.80;4.35;;;20.50;99.90;;;;;;5053794;28;20029;-41
2023/06/11 08:36:56;;;;;;;5.05;3.80;;;20.50;99.90;;;;;;5053802;28;20412;-40
2023/06/11 08:39:22;;;;;;;4.22;3.83;;;20.50;99.90;;;;;;5054723;28;20036;-40
2023/06/11 08:41:47;;;;;;;5.25;4.10;;;20.50;99.90;;;;;;5053362;28;20021;-41
2023/06/11 08:44:14;;;;;;;4.03;3.63;;;20.50;99.90;;;;;;5053077;28;20048;-39
2023/06/11 08:46:44;;;;;;;6.90;4.03;;;20.50;99.90;;;;;;5053528;28;20044;-40
2023/06/11 08:49:19;;;;;;;4.97;4.10;;;20.50;99.90;;;;;;5053780;28;20484;-40
2023/06/11 08:51:48;;;;;;;5.20;3.70;;;20.50;99.90;;;;;;5053448;28;20095;-44
2023/06/11 08:54:14;;;;;;;4.75;3.75;;;20.50;99.90;;;;;;5053892;28;20052;-42
2023/06/11 08:56:40;;;;;;;4.15;3.75;;;20.50;99.90;;;;;;5053349;28;20036;-39
2023/06/11 08:59:06;;;;;;;4.47;4.00;;;20.50;99.90;;;;;;5053272;28;20541;-41
2023/06/11 09:01:32;;;;;;;5.55;3.90;;;20.50;99.90;;;;;;5053211;28;20021;-40
2023/06/11 09:03:59;;;;;;;5.03;3.95;;;20.50;99.90;;;;;;5053793;28;20029;-38
2023/06/11 09:06:24;;;;;;;8.05;4.13;;;20.60;99.90;;;;;;5052931;28;20102;-40
2023/06/11 09:09:02;;;;;;;7.80;3.72;;;20.90;99.90;;;;;;5053007;28;20441;-40
2023/06/11 09:11:35;;;;;;;5.30;3.72;;;21.20;99.90;;;;;;5052937;28;20033;-42
2023/06/11 09:14:02;;;;;;;5.70;3.70;;;21.20;99.90;;;;;;5053015;28;20475;-41
2023/06/11 09:16:28;;;;;;;5.18;3.53;;;21.20;99.90;;;;;;5052933;28;20029;-42
2023/06/11 09:18:56;;;;;;;5.35;3.80;;;21.20;99.90;;;;;;5053116;28;20033;-41
2023/06/11 09:21:24;;;;;;;6.70;3.65;;;21.20;99.90;;;;;;5051752;28;20029;-42
2023/06/11 09:23:49;;;;;;;6.07;3.65;;;21.10;99.90;;;;;;5052811;28;20090;-42
2023/06/11 09:26:17;;;;;;;4.47;3.58;;;21.10;99.90;;;;;;5052745;28;20376;-42
2023/06/11 09:28:43;;;;;;;4.80;3.80;;;21.00;99.90;;;;;;5053889;28;20032;-43
2023/06/11 09:31:09;;;;;;;4.20;3.70;;;21.00;99.90;;;;;;5053825;28;20102;-41
2023/06/11 09:33:36;;;;;;;6.32;3.70;;;21.00;99.90;;;;;;5053011;28;20064;-42
2023/06/11 09:36:02;;;;;;;4.43;3.63;;;21.00;99.90;;;;;;5052506;28;20029;-43
2023/06/11 09:38:28;;;;;;;7.25;3.97;;;21.10;99.90;;;;;;5052826;28;20078;-41
2023/06/11 09:40:57;;;;;;;7.57;3.90;;;21.00;99.90;;;;;;5052242;28;20023;-41
2023/06/11 09:43:24;;;;;;;6.43;3.80;;;21.00;99.90;;;;;;5053029;28;20032;-42
2023/06/11 09:45:52;;;;;;;8.15;3.70;;;21.00;99.90;;;;;;5052348;28;20029;-41
2023/06/11 09:48:20;;;;;;;4.20;3.60;;;21.00;99.90;;;;;;5052269;28;20380;-41
2023/06/11 09:50:51;;;;;;;5.65;3.28;;;21.00;99.90;;;;;;5052152;28;20032;-42
2023/06/11 09:53:22;;;;;;;4.95;3.67;;;21.00;99.90;;;;;;5052497;28;20096;-41
2023/06/11 09:55:51;;;;;;;6.55;3.40;;;21.00;99.90;;;;;;5052370;28;20025;-41
2023/06/11 09:58:21;;;;;;;8.05;3.97;;;21.00;99.90;;;;;;5052150;28;20372;-41
2023/06/11 10:00:52;;;;;;;4.95;3.88;;;21.00;99.90;;;;;;5052787;28;20476;-41
2023/06/11 10:03:18;;;;;;;5.75;4.07;;;21.00;99.90;;;;;;5052135;28;20028;-42
2023/06/11 10:05:44;;;;;;;4.40;3.50;;;21.00;99.90;;;;;;5052034;28;20083;-41
2023/06/11 10:08:17;;;;;;;3.85;3.38;;;21.00;99.90;;;;;;5052390;28;20443;-42
2023/06/11 10:10:45;;;;;;;5.38;3.45;;;21.10;99.90;;;;;;5051978;28;20028;-41
2023/06/11 10:13:11;;;;;;;4.30;3.35;;;21.10;99.90;;;;;;5051719;28;20365;-41
2023/06/11 10:15:37;;;;;;;4.70;3.58;;;21.10;99.90;;;;;;5050737;28;20040;-41
2023/06/11 10:18:13;;;;;;;4.43;2.95;;;21.10;99.90;;;;;;5051773;28;20395;-42
2023/06/11 10:20:51;;;;;;;4.95;3.60;;;21.10;99.90;;;;;;5051554;28;20032;-41
2023/06/11 10:23:18;;;;;;;4.30;3.60;;;21.10;99.90;;;;;;5051686;28;20029;-43
2023/06/11 10:25:53;;;;;;;3.88;3.35;;;21.10;99.90;;;;;;5051511;28;20040;-41
2023/06/11 10:28:18;;;;;;;4.43;3.50;;;21.20;99.90;;;;;;5051676;28;20154;-42
2023/06/11 10:30:54;;;;;;;4.03;3.30;;;21.20;99.90;;;;;;5051418;28;20068;-42
2023/06/11 10:33:21;;;;;;;4.05;3.65;;;21.20;99.90;;;;;;5052072;28;20032;-41
2023/06/11 10:35:47;;;;;;;5.20;3.42;;;21.20;99.90;;;;;;5051492;28;20024;-41
2023/06/11 10:38:15;;;;;;;5.90;3.50;;;21.20;99.90;;;;;;5051900;28;20028;-41
2023/06/11 10:40:41;;;;;;;3.90;3.40;;;21.20;99.90;;;;;;5051193;28;20025;-41
2023/06/11 10:43:19;;;;;;;5.07;3.45;;;21.20;99.90;;;;;;5051445;28;20025;-43
2023/06/11 10:45:45;;;;;;;3.92;3.42;;;21.20;99.90;;;;;;5051374;28;20024;-42
2023/06/11 10:48:11;;;;;;;5.78;3.60;;;21.20;99.90;;;;;;5051313;28;20100;-42
2023/06/11 10:50:38;;;;;;;4.65;3.40;;;21.20;99.90;;;;;;5051003;28;20055;-41
2023/06/11 10:53:13;;;;;;;4.28;3.53;;;21.20;99.90;;;;;;5051460;28;20110;-41
2023/06/11 10:55:43;;;;;;;;;;;21.20;99.90;;;;;;5052149;28;20029;-41
2023/06/11 10:58:09;;;;;;;3.67;3.30;;;21.20;99.90;;;;;;5051958;28;20472;-41
2023/06/11 11:00:37;;;;;;;3.85;3.42;;;21.20;99.90;;;;;;5050881;28;20032;-42
2023/06/11 11:03:04;;;;;;;4.57;3.33;;;21.20;99.90;;;;;;5051056;28;20512;-41
2023/06/11 11:05:30;;;;;;;4.05;3.30;;;21.20;99.90;;;;;;5050650;28;20056;-42
2023/06/11 11:07:56;;;;;;;4.30;3.45;;;21.20;99.90;;;;;;5051274;28;20025;-41
2023/06/11 11:10:26;;;;;;;5.63;3.63;;;21.30;99.90;;;;;;5051057;28;20021;-42
2023/06/11 11:12:53;;;;;;;4.38;3.70;;;21.30;99.90;;;;;;5051056;28;20025;-41
2023/06/11 11:15:20;;;;;;;5.25;3.40;;;21.30;99.90;;;;;;5052338;28;20036;-42
2023/06/11 11:17:47;;;;;;;3.85;3.15;;;21.30;99.90;;;;;;5051471;28;20033;-43
2023/06/11 11:20:19;;;;;;;5.22;3.42;;;21.30;99.90;;;;;;5050713;28;20032;-41
2023/06/11 11:22:56;;;;;;;3.90;3.30;;;21.30;99.90;;;;;;5051754;28;20024;-43
2023/06/11 11:25:29;;;;;;;5.70;3.50;;;21.30;99.90;;;;;;5050897;28;20029;-42
2023/06/11 11:27:56;;;;;;;3.75;3.22;;;21.30;99.90;;;;;;5050997;28;20020;-43
2023/06/11 11:30:24;;;;;;;4.25;3.40;;;21.30;99.90;;;;;;5050578;28;20032;-41
2023/06/11 11:32:52;;;;;;;4.72;3.50;;;21.30;99.90;;;;;;5051212;28;20025;-41
2023/06/11 11:35:20;;;;;;;3.83;3.35;;;21.30;99.90;;;;;;5051005;28;20025;-41
2023/06/11 11:37:46;;;;;;;7.18;3.58;;;21.30;99.90;;;;;;5048354;28;20172;-39
2023/06/11 11:40:12;;;;;;;5.28;3.10;;;21.60;98.50;;;;;;5030042;28;20101;-40
2023/06/11 11:42:45;;;;;;;6.93;3.30;;;22.60;96.20;;;;;;5030886;28;20018;-40
2023/06/11 11:45:14;;;;;;;6.40;2.72;;;22.60;96.40;;;;;;5029327;28;20504;-35
2023/06/11 11:47:52;;;;;;;3.40;2.75;;;22.60;94.60;;;;;;5030757;28;20107;-35
2023/06/11 11:50:30;;;;;;;9.43;3.03;;;22.80;93.00;;;;;;5030968;28;20036;-35
2023/06/11 11:53:13;;;;;;;4.38;2.65;;;22.70;94.60;;;;;;5030829;28;20025;-40
2023/06/11 11:55:40;;;;;;;5.13;2.83;;;22.50;95.20;;;;;;5031149;28;20030;-38
2023/06/11 11:58:11;;;;;;;6.95;3.00;;;22.30;95.70;;;;;;5031653;28;20075;-35
2023/06/11 12:00:53;;;;;;;5.18;2.72;;;22.10;96.10;;;;;;5030510;28;20029;-37
2023/06/11 12:03:20;;;;;;;3.47;2.83;;;22.00;96.80;;;;;;5031324;28;20017;-34
2023/06/11 12:06:00;;;;;;;5.57;2.90;;;21.80;96.80;;;;;;5031003;28;20030;-37
2023/06/11 12:08:27;;;;;;;7.47;2.80;;;21.80;97.10;;;;;;5030822;28;20032;-37
2023/06/11 12:10:54;;;;;;;4.78;3.03;;;21.70;97.20;;;;;;5030712;28;20168;-37
2023/06/11 12:13:20;;;;;;;4.15;2.97;;;21.60;97.40;;;;;;5030589;28;20128;-41
2023/06/11 12:15:46;;;;;;;3.65;2.70;;;21.60;97.60;;;;;;5031633;28;20104;-37
2023/06/11 12:18:11;;;;;;;3.00;2.70;;;21.60;97.80;;;;;;5033439;28;20429;-36
2023/06/11 12:20:37;;;;;;;4.65;2.90;;;21.60;97.90;;;;;;5033831;28;20116;-38
2023/06/11 12:23:03;;;;;;;4.47;2.90;;;21.50;97.90;;;;;;5034058;28;20026;-35
2023/06/11 12:25:30;;;;;;;4.20;2.90;;;21.50;98.00;;;;;;5034179;28;20048;-36
2023/06/11 12:27:56;;;;;;;5.28;3.10;;;21.50;98.20;;;;;;5034201;28;20028;-38
2023/06/11 12:30:22;;;;;;;4.85;3.05;;;21.50;98.30;;;;;;5033768;28;20029;-37
2023/06/11 12:32:48;;;;;;;3.97;2.70;;;21.50;98.40;;;;;;5033933;28;20324;-37
2023/06/11 12:35:14;;;;;;;5.32;2.78;;;21.40;98.40;;;;;;5034055;28;20021;-35
2023/06/11 12:37:40;;;;;;;4.85;2.90;;;21.40;98.50;;;;;;5033863;28;20061;-35
2023/06/11 12:40:06;;;;;;;6.93;2.80;;;21.30;98.60;;;;;;5033874;28;20021;-36
2023/06/11 12:42:33;;;;;;;6.90;2.95;;;21.50;95.80;;;;;;5032656;28;20033;-37
2023/06/11 12:45:02;;;;;;;9.23;2.83;;;21.80;94.90;;;;;;5033631;28;20017;-37
2023/06/11 12:47:28;;;;;;;3.90;2.95;;;21.90;95.60;;;;;;5034429;28;20017;-35